createdAt,value
2022-09-23T00:01:18.168Z,100.00
2022-09-23T00:03:46.309Z,100.00
2022-09-23T00:06:16.051Z,100.00
2022-09-23T00:08:44.090Z,100.00
2022-09-23T00:11:17.187Z,100.00
2022-09-23T00:13:46.151Z,100.00
2022-09-23T00:16:19.394Z,100.00
2022-09-23T00:18:46.414Z,100.00
2022-09-23T00:21:14.723Z,100.00
2022-09-23T00:23:43.024Z,100.00
2022-09-23T00:26:14.003Z,100.00
2022-09-23T00:28:40.783Z,100.00
2022-09-23T00:31:11.753Z,100.00
2022-09-23T00:33:40.726Z,100.00
2022-09-23T00:36:11.183Z,100.00
2022-09-23T00:38:39.041Z,100.00
2022-09-23T00:41:06.585Z,100.00
2022-09-23T00:43:58.005Z,100.00
2022-09-23T00:46:33.095Z,100.00
2022-09-23T00:49:25.118Z,100.00
2022-09-23T00:52:15.231Z,100.00
2022-09-23T00:54:43.092Z,100.00
2022-09-23T00:57:11.573Z,100.00
2022-09-23T00:59:39.205Z,100.00
2022-09-23T01:02:07.043Z,100.00
2022-09-23T01:04:34.795Z,100.00
2022-09-23T01:07:01.628Z,100.00
2022-09-23T01:09:28.840Z,100.00
2022-09-23T01:12:21.522Z,100.00
2022-09-23T01:14:57.599Z,100.00
2022-09-23T01:17:43.098Z,100.00
2022-09-23T01:20:24.854Z,100.00
2022-09-23T01:23:14.237Z,100.00
2022-09-23T01:26:22.299Z,100.00
2022-09-23T01:29:04.037Z,100.00
2022-09-23T01:32:07.032Z,100.00
2022-09-23T01:34:46.111Z,100.00
2022-09-23T01:37:25.041Z,100.00
2022-09-23T01:40:03.552Z,100.00
2022-09-23T01:43:05.675Z,100.00
2022-09-23T01:45:45.935Z,100.00
2022-09-23T01:48:18.518Z,100.00
2022-09-23T01:50:58.906Z,100.00
2022-09-23T01:53:48.994Z,100.00
2022-09-23T01:56:22.625Z,100.00
2022-09-23T01:59:02.543Z,100.00
2022-09-23T02:02:11.176Z,100.00
2022-09-23T02:04:50.527Z,100.00
2022-09-23T02:07:25.734Z,100.00
2022-09-23T02:10:02.834Z,100.00
2022-09-23T02:12:34.371Z,100.00
2022-09-23T02:15:07.578Z,100.00
2022-09-23T02:17:58.915Z,100.00
2022-09-23T02:20:30.406Z,100.00
2022-09-23T02:23:07.671Z,100.00
2022-09-23T02:25:45.283Z,100.00
2022-09-23T02:28:19.091Z,100.00
2022-09-23T02:30:51.766Z,100.00
2022-09-23T02:33:27.794Z,100.00
2022-09-23T02:36:01.273Z,100.00
2022-09-23T02:38:53.413Z,100.00
2022-09-23T02:41:34.762Z,100.00
2022-09-23T02:44:11.885Z,100.00
2022-09-23T02:46:39.271Z,100.00
2022-09-23T02:49:11.305Z,100.00
2022-09-23T02:51:39.378Z,100.00
2022-09-23T02:54:10.677Z,100.00
2022-09-23T02:56:39.153Z,100.00
2022-09-23T02:59:06.249Z,100.00
2022-09-23T03:01:59.252Z,100.00
2022-09-23T03:05:00.130Z,100.00
2022-09-23T03:07:55.061Z,100.00
2022-09-23T03:10:27.085Z,100.00
2022-09-23T03:13:19.319Z,100.00
2022-09-23T03:15:46.263Z,100.00
2022-09-23T03:18:19.279Z,100.00
2022-09-23T03:20:50.656Z,100.00
2022-09-23T03:23:25.237Z,100.00
2022-09-23T03:25:54.920Z,100.00
2022-09-23T03:28:25.459Z,100.00
2022-09-23T03:30:54.585Z,100.00
2022-09-23T03:33:28.478Z,100.00
2022-09-23T03:36:24.120Z,100.00
2022-09-23T03:38:54.905Z,100.00
2022-09-23T03:41:30.125Z,100.00
2022-09-23T03:43:59.568Z,100.00
2022-09-23T03:46:28.654Z,100.00
2022-09-23T03:49:16.440Z,100.00
2022-09-23T03:51:44.820Z,100.00
2022-09-23T03:54:12.199Z,100.00
2022-09-23T03:56:38.970Z,100.00
2022-09-23T03:59:08.084Z,100.00
2022-09-23T04:01:34.916Z,100.00
2022-09-23T04:04:01.965Z,100.00
2022-09-23T04:06:29.007Z,100.00
2022-09-23T04:08:55.857Z,100.00
2022-09-23T04:11:22.724Z,100.00
2022-09-23T04:13:49.865Z,100.00
2022-09-23T04:16:16.883Z,100.00
2022-09-23T04:18:43.828Z,100.00
2022-09-23T04:21:10.950Z,100.00
2022-09-23T04:23:37.785Z,100.00
2022-09-23T04:26:05.899Z,100.00
2022-09-23T04:28:34.392Z,100.00
2022-09-23T04:31:09.477Z,100.00
2022-09-23T04:33:37.733Z,100.00
2022-09-23T04:36:04.915Z,100.00
2022-09-23T04:38:32.042Z,100.00
2022-09-23T04:40:59.078Z,100.00
2022-09-23T04:43:26.190Z,100.00
2022-09-23T04:46:05.330Z,100.00
2022-09-23T04:48:33.905Z,100.00
2022-09-23T04:51:05.037Z,100.00
2022-09-23T04:53:33.118Z,100.00
2022-09-23T04:56:19.600Z,100.00
2022-09-23T04:58:47.209Z,100.00
2022-09-23T05:01:21.065Z,100.00
2022-09-23T05:03:48.020Z,100.00
2022-09-23T05:06:15.377Z,100.00
2022-09-23T05:08:48.471Z,100.00
2022-09-23T05:11:15.357Z,100.00
2022-09-23T05:13:42.424Z,100.00
2022-09-23T05:16:12.548Z,100.00
2022-09-23T05:18:42.794Z,100.00
2022-09-23T05:21:11.650Z,100.00
2022-09-23T05:23:40.090Z,100.00
2022-09-23T05:26:09.546Z,100.00
2022-09-23T05:28:37.627Z,100.00
2022-09-23T05:31:18.613Z,100.00
2022-09-23T05:33:55.491Z,100.00
2022-09-23T05:36:23.199Z,100.00
2022-09-23T05:38:51.427Z,100.00
2022-09-23T05:41:20.516Z,100.00
2022-09-23T05:43:47.525Z,100.00
2022-09-23T05:46:17.910Z,100.00
2022-09-23T05:48:46.799Z,100.00
2022-09-23T05:51:20.171Z,100.00
2022-09-23T05:53:48.484Z,100.00
2022-09-23T05:56:17.446Z,100.00
2022-09-23T05:58:45.148Z,100.00
2022-09-23T06:01:14.526Z,100.00
2022-09-23T06:03:41.408Z,100.00
2022-09-23T06:06:14.641Z,100.00
2022-09-23T06:08:42.280Z,100.00
2022-09-23T06:11:09.811Z,100.00
2022-09-23T06:13:38.324Z,100.00
2022-09-23T06:16:11.777Z,100.00
2022-09-23T06:18:40.532Z,100.00
2022-09-23T06:21:08.449Z,100.00
2022-09-23T06:23:37.998Z,100.00
2022-09-23T06:26:08.573Z,100.00
2022-09-23T06:28:40.732Z,100.00
2022-09-23T06:31:13.616Z,100.00
2022-09-23T06:33:43.209Z,100.00
2022-09-23T06:36:11.517Z,100.00
2022-09-23T06:38:40.294Z,100.00
2022-09-23T06:41:08.243Z,100.00
2022-09-23T06:43:35.151Z,100.00
2022-09-23T06:46:05.188Z,100.00
2022-09-23T06:48:35.805Z,100.00
2022-09-23T06:51:05.261Z,100.00
2022-09-23T06:53:32.379Z,100.00
2022-09-23T06:56:07.141Z,100.00
2022-09-23T06:58:36.267Z,100.00
2022-09-23T07:01:04.514Z,100.00
2022-09-23T07:03:32.112Z,100.00
2022-09-23T07:06:00.150Z,100.00
2022-09-23T07:08:29.104Z,100.00
2022-09-23T07:10:57.974Z,100.00
2022-09-23T07:13:25.372Z,100.00
2022-09-23T07:15:54.133Z,100.00
2022-09-23T07:18:25.645Z,100.00
2022-09-23T07:20:53.532Z,100.00
2022-09-23T07:23:21.090Z,100.00
2022-09-23T07:25:49.601Z,100.00
2022-09-23T07:28:16.525Z,100.00
2022-09-23T07:30:56.813Z,100.00
2022-09-23T07:33:33.359Z,100.00
2022-09-23T07:36:19.820Z,100.00
2022-09-23T07:38:47.580Z,100.00
2022-09-23T07:41:17.982Z,100.00
2022-09-23T07:43:47.807Z,100.00
2022-09-23T07:46:17.629Z,100.00
2022-09-23T07:48:46.030Z,100.00
2022-09-23T07:51:20.386Z,100.00
2022-09-23T07:53:49.313Z,100.00
2022-09-23T07:56:17.409Z,100.00
2022-09-23T07:58:44.649Z,100.00
2022-09-23T08:01:12.834Z,100.00
2022-09-23T08:03:39.954Z,100.00
2022-09-23T08:06:12.750Z,100.00
2022-09-23T08:08:43.525Z,100.00
2022-09-23T08:11:12.327Z,97.83
2022-09-23T08:13:39.352Z,99.27
2022-09-23T08:16:06.945Z,97.30
2022-09-23T08:18:33.927Z,94.78
2022-09-23T08:21:00.751Z,93.41
2022-09-23T08:23:28.004Z,93.20
2022-09-23T08:26:00.100Z,92.43
2022-09-23T08:28:28.474Z,91.00
2022-09-23T08:30:55.984Z,91.45
2022-09-23T08:33:23.809Z,90.12
2022-09-23T08:35:51.961Z,90.80
2022-09-23T08:38:20.669Z,90.14
2022-09-23T08:40:49.645Z,91.45
2022-09-23T08:43:27.452Z,90.53
2022-09-23T08:45:57.555Z,88.54
2022-09-23T08:48:43.895Z,88.81
2022-09-23T08:51:35.779Z,90.88
2022-09-23T08:54:02.914Z,89.58
2022-09-23T08:56:31.162Z,91.50
2022-09-23T08:59:21.093Z,88.67
2022-09-23T09:01:53.737Z,88.97
2022-09-23T09:04:37.653Z,90.62
2022-09-23T09:10:13.406Z,92.89
2022-09-23T09:12:45.042Z,93.16
2022-09-23T09:15:26.737Z,94.00
2022-09-23T09:18:13.919Z,93.26
2022-09-23T09:21:09.351Z,92.45
2022-09-23T09:23:44.959Z,93.41
2022-09-23T09:26:19.737Z,90.49
2022-09-23T09:28:52.296Z,90.13
2022-09-23T09:31:36.226Z,87.18
2022-09-23T09:34:12.086Z,87.12
2022-09-23T09:36:53.983Z,85.01
2022-09-23T09:39:25.966Z,85.43
2022-09-23T09:41:55.519Z,83.17
2022-09-23T09:44:42.769Z,81.79
2022-09-23T09:47:29.968Z,80.81
2022-09-23T09:50:09.739Z,78.76
2022-09-23T09:52:43.375Z,76.90
2022-09-23T09:55:13.108Z,78.26
2022-09-23T09:57:49.067Z,78.95
2022-09-23T10:00:35.696Z,77.07
2022-09-23T10:03:57.042Z,79.74
2022-09-23T10:06:29.135Z,80.55
2022-09-23T10:09:02.114Z,81.12
2022-09-23T10:11:30.620Z,81.45
2022-09-23T10:14:02.340Z,81.93
2022-09-23T10:16:31.879Z,79.16
2022-09-23T10:19:01.965Z,80.43
2022-09-23T10:21:36.879Z,80.10
2022-09-23T10:24:07.121Z,77.99
2022-09-23T10:26:42.527Z,78.21
2022-09-23T10:29:35.712Z,74.08
2022-09-23T10:32:38.760Z,74.49
2022-09-23T10:35:14.965Z,73.14
2022-09-23T10:37:41.758Z,70.58
2022-09-23T10:40:35.080Z,68.99
2022-09-23T10:43:39.391Z,64.78
2022-09-23T10:46:31.884Z,63.39
2022-09-23T10:49:09.071Z,66.37
2022-09-23T10:52:02.038Z,56.34
2022-09-23T10:54:28.789Z,56.32
2022-09-23T10:57:21.612Z,59.71
2022-09-23T11:00:02.964Z,51.89
2022-09-23T11:02:49.261Z,45.27
2022-09-23T11:05:38.275Z,43.35
2022-09-23T11:08:42.851Z,44.44
2022-09-23T11:11:19.793Z,44.19
2022-09-23T11:14:17.078Z,44.26
2022-09-23T11:17:03.812Z,43.98
2022-09-23T11:19:49.276Z,42.63
2022-09-23T11:22:16.166Z,41.41
2022-09-23T11:25:17.169Z,42.03
2022-09-23T11:27:53.630Z,42.31
2022-09-23T11:30:21.378Z,43.80
2022-09-23T11:35:47.799Z,46.30
2022-09-23T11:38:18.854Z,47.72
2022-09-23T11:40:54.916Z,49.57
2022-09-23T11:43:25.129Z,48.23
2022-09-23T11:46:10.227Z,48.82
2022-09-23T11:48:44.158Z,49.95
2022-09-23T11:51:18.645Z,52.25
2022-09-23T11:54:12.350Z,54.08
2022-09-23T11:56:47.962Z,56.24
2022-09-23T11:59:23.014Z,62.96
2022-09-23T12:02:11.512Z,64.94
2022-09-23T12:04:56.923Z,69.22
2022-09-23T12:07:36.551Z,69.57
2022-09-23T12:10:03.655Z,69.97
2022-09-23T12:12:51.889Z,70.95
2022-09-23T12:15:37.416Z,73.76
2022-09-23T12:18:47.697Z,77.34
2022-09-23T12:21:39.087Z,79.54
2022-09-23T12:24:07.815Z,82.19
2022-09-23T12:26:38.535Z,84.36
2022-09-23T12:29:06.935Z,86.30
2022-09-23T12:31:41.110Z,89.64
2022-09-23T12:34:34.498Z,91.17
2022-09-23T12:37:05.707Z,87.85
2022-09-23T12:39:38.642Z,87.04
2022-09-23T12:42:19.493Z,83.88
2022-09-23T12:44:48.759Z,76.82
2022-09-23T12:47:25.017Z,75.96
2022-09-23T12:49:53.307Z,74.68
2022-09-23T12:52:20.263Z,70.10
2022-09-23T12:54:49.412Z,71.64
2022-09-23T12:57:34.422Z,68.11
2022-09-23T13:00:11.302Z,66.56
2022-09-23T13:03:11.513Z,66.55
2022-09-23T13:06:20.205Z,66.40
2022-09-23T13:08:49.417Z,67.76
2022-09-23T13:11:28.325Z,68.34
2022-09-23T13:13:59.791Z,64.18
2022-09-23T13:16:33.087Z,65.56
2022-09-23T13:19:02.598Z,66.05
2022-09-23T13:21:45.864Z,63.13
2022-09-23T13:24:31.242Z,61.11
2022-09-23T13:27:22.113Z,62.98
2022-09-23T13:30:25.066Z,65.27
2022-09-23T13:33:17.170Z,63.36
2022-09-23T13:35:50.822Z,65.22
2022-09-23T13:38:26.346Z,62.37
2022-09-23T13:41:25.285Z,63.09
2022-09-23T13:43:56.334Z,64.23
2022-09-23T13:46:25.098Z,64.94
2022-09-23T13:48:56.628Z,65.12
2022-09-23T13:51:27.793Z,66.10
2022-09-23T13:53:56.602Z,67.69
2022-09-23T13:56:26.542Z,67.29
2022-09-23T13:58:55.938Z,69.73
2022-09-23T14:01:34.870Z,69.45
2022-09-23T14:04:04.921Z,70.58
2022-09-23T14:06:32.287Z,71.11
2022-09-23T14:09:01.461Z,72.87
2022-09-23T14:11:32.068Z,73.74
2022-09-23T14:14:03.709Z,73.03
2022-09-23T14:16:30.848Z,72.20
2022-09-23T14:19:00.511Z,72.14
2022-09-23T14:21:35.455Z,73.95
2022-09-23T14:24:41.738Z,75.44
2022-09-23T14:27:17.833Z,76.07
2022-09-23T14:29:48.294Z,74.53
2022-09-23T14:32:21.333Z,75.60
2022-09-23T14:35:01.281Z,76.47
2022-09-23T14:38:02.440Z,76.27
2022-09-23T14:40:32.869Z,75.28
2022-09-23T14:43:16.125Z,75.62
2022-09-23T14:45:50.556Z,76.22
2022-09-23T14:48:23.096Z,76.33
2022-09-23T14:50:54.809Z,75.06
2022-09-23T14:53:24.501Z,74.68
2022-09-23T14:56:07.769Z,75.54
2022-09-23T14:59:00.949Z,77.15
2022-09-23T15:01:38.911Z,77.36
2022-09-23T15:04:28.285Z,77.43
2022-09-23T15:07:06.396Z,76.57
2022-09-23T15:09:37.934Z,77.99
2022-09-23T15:12:17.182Z,77.36
2022-09-23T15:14:50.510Z,77.95
2022-09-23T15:17:23.539Z,78.97
2022-09-23T15:19:59.795Z,78.84
2022-09-23T15:22:27.354Z,79.54
2022-09-23T15:25:08.187Z,80.86
2022-09-23T15:27:35.383Z,80.60
2022-09-23T15:30:15.441Z,81.17
2022-09-23T15:32:46.760Z,81.78
2022-09-23T15:35:22.134Z,81.79
2022-09-23T15:37:51.558Z,82.20
2022-09-23T15:40:31.175Z,82.15
2022-09-23T15:43:00.755Z,83.36
2022-09-23T15:45:40.807Z,83.93
2022-09-23T15:48:13.205Z,84.12
2022-09-23T15:50:45.562Z,84.92
2022-09-23T15:53:18.856Z,85.77
2022-09-23T15:55:46.223Z,87.12
2022-09-23T15:58:13.340Z,88.15
2022-09-23T16:00:40.303Z,89.72
2022-09-23T16:03:07.176Z,90.94
2022-09-23T16:05:37.825Z,93.15
2022-09-23T16:08:09.021Z,94.27
2022-09-23T16:10:37.496Z,95.20
2022-09-23T16:13:06.970Z,95.57
2022-09-23T16:15:34.291Z,97.03
2022-09-23T16:18:01.627Z,97.13
2022-09-23T16:20:30.108Z,97.84
2022-09-23T16:23:00.085Z,99.03
2022-09-23T16:25:29.250Z,100.00
2022-09-23T16:27:56.494Z,100.00
2022-09-23T16:30:28.156Z,100.00
2022-09-23T16:32:55.323Z,100.00
2022-09-23T16:35:24.485Z,100.00
2022-09-23T16:37:51.740Z,100.00
2022-09-23T16:40:21.113Z,100.00
2022-09-23T16:42:49.842Z,100.00
2022-09-23T16:45:18.238Z,100.00
2022-09-23T16:47:47.571Z,100.00
2022-09-23T16:50:17.299Z,100.00
2022-09-23T16:52:46.163Z,100.00
2022-09-23T16:55:14.807Z,100.00
2022-09-23T16:57:42.055Z,100.00
2022-09-23T17:00:34.097Z,100.00
2022-09-23T17:03:21.109Z,100.00
2022-09-23T17:05:49.838Z,100.00
2022-09-23T17:08:17.888Z,100.00
2022-09-23T17:10:55.068Z,100.00
2022-09-23T17:13:22.072Z,100.00
2022-09-23T17:15:49.045Z,100.00
2022-09-23T17:18:19.405Z,100.00
2022-09-23T17:21:04.979Z,100.00
2022-09-23T17:23:33.555Z,100.00
2022-09-23T17:26:01.282Z,100.00
2022-09-23T17:28:28.852Z,100.00
2022-09-23T17:30:58.143Z,100.00
2022-09-23T17:33:30.177Z,100.00
2022-09-23T17:35:59.187Z,100.00
2022-09-23T17:38:29.388Z,100.00
2022-09-23T17:41:01.065Z,100.00
2022-09-23T17:43:30.243Z,100.00
2022-09-23T17:46:02.207Z,100.00
2022-09-23T17:48:32.870Z,100.00
2022-09-23T17:51:02.243Z,100.00
2022-09-23T17:53:30.136Z,100.00
2022-09-23T17:55:58.396Z,100.00
2022-09-23T17:58:30.207Z,100.00
2022-09-23T18:00:58.060Z,100.00
2022-09-23T18:03:28.214Z,100.00
2022-09-23T18:05:55.208Z,100.00
2022-09-23T18:08:22.000Z,100.00
2022-09-23T18:10:48.999Z,100.00
2022-09-23T18:13:15.812Z,100.00
2022-09-23T18:15:42.963Z,100.00
2022-09-23T18:18:10.089Z,100.00
2022-09-23T18:20:36.882Z,100.00
2022-09-23T18:23:03.679Z,100.00
2022-09-23T18:25:40.328Z,100.00
2022-09-23T18:28:07.162Z,100.00
2022-09-23T18:30:34.153Z,100.00
2022-09-23T18:33:01.670Z,100.00
2022-09-23T18:35:28.566Z,100.00
2022-09-23T18:37:56.131Z,100.00
2022-09-23T18:40:23.009Z,100.00
2022-09-23T18:42:50.394Z,100.00
2022-09-23T18:45:17.467Z,100.00
2022-09-23T18:48:02.633Z,100.00
2022-09-23T18:50:55.686Z,100.00
2022-09-23T18:53:22.519Z,100.00
2022-09-23T18:55:49.949Z,100.00
2022-09-23T18:58:16.752Z,100.00
2022-09-23T19:00:43.618Z,100.00
2022-09-23T19:03:10.736Z,100.00
2022-09-23T19:05:37.529Z,100.00
2022-09-23T19:08:04.354Z,100.00
2022-09-23T19:10:31.344Z,100.00
2022-09-23T19:12:58.087Z,100.00
2022-09-23T19:15:24.880Z,100.00
2022-09-23T19:17:51.803Z,100.00
2022-09-23T19:20:18.596Z,100.00
2022-09-23T19:22:47.293Z,100.00
2022-09-23T19:25:14.914Z,100.00
2022-09-23T19:27:41.723Z,100.00
2022-09-23T19:30:09.335Z,100.00
2022-09-23T19:32:36.371Z,100.00
2022-09-23T19:35:03.125Z,100.00
2022-09-23T19:37:29.962Z,100.00
2022-09-23T19:39:56.902Z,100.00
2022-09-23T19:42:25.062Z,100.00
2022-09-23T19:44:53.121Z,100.00
2022-09-23T19:47:20.136Z,100.00
2022-09-23T19:49:47.438Z,100.00
2022-09-23T19:52:14.208Z,100.00
2022-09-23T19:54:41.215Z,100.00
2022-09-23T19:57:09.171Z,100.00
2022-09-23T19:59:35.910Z,100.00
2022-09-23T20:02:02.886Z,100.00
2022-09-23T20:04:29.734Z,100.00
2022-09-23T20:06:56.532Z,100.00
2022-09-23T20:09:23.532Z,100.00
2022-09-23T20:11:51.043Z,100.00
2022-09-23T20:14:19.866Z,100.00
2022-09-23T20:16:46.939Z,100.00
2022-09-23T20:19:13.811Z,100.00
2022-09-23T20:21:40.679Z,100.00
2022-09-23T20:24:09.683Z,100.00
2022-09-23T20:26:54.939Z,100.00
2022-09-23T20:29:22.862Z,100.00
2022-09-23T20:31:49.803Z,100.00
2022-09-23T20:34:16.747Z,100.00
2022-09-23T20:36:44.261Z,100.00
2022-09-23T20:39:12.478Z,100.00
2022-09-23T20:41:39.837Z,100.00
2022-09-23T20:44:14.394Z,100.00
2022-09-23T20:46:48.287Z,100.00
2022-09-23T20:49:16.837Z,100.00
2022-09-23T20:51:43.686Z,100.00
2022-09-23T20:54:12.093Z,100.00
2022-09-23T20:56:39.216Z,100.00
2022-09-23T20:59:05.987Z,100.00
2022-09-23T21:01:35.217Z,100.00
2022-09-23T21:04:04.935Z,100.00
2022-09-23T21:06:34.610Z,100.00
2022-09-23T21:09:01.740Z,100.00
2022-09-23T21:11:29.315Z,100.00
2022-09-23T21:13:56.639Z,100.00
2022-09-23T21:16:24.061Z,100.00
2022-09-23T21:18:52.042Z,100.00
2022-09-23T21:21:19.830Z,100.00
2022-09-23T21:23:47.196Z,100.00
2022-09-23T21:26:19.348Z,100.00
2022-09-23T21:28:48.633Z,100.00
2022-09-23T21:31:25.787Z,100.00
2022-09-23T21:34:01.577Z,100.00
2022-09-23T21:36:34.922Z,100.00
2022-09-23T21:39:01.887Z,100.00
2022-09-23T21:41:29.204Z,100.00
2022-09-23T21:43:56.434Z,100.00
2022-09-23T21:46:24.472Z,100.00
2022-09-23T21:48:53.875Z,100.00
2022-09-23T21:51:29.615Z,100.00
2022-09-23T21:53:58.072Z,100.00
2022-09-23T21:56:30.066Z,100.00
2022-09-23T21:58:58.444Z,100.00
2022-09-23T22:01:33.261Z,100.00
2022-09-23T22:04:08.417Z,100.00
2022-09-23T22:06:38.336Z,100.00
2022-09-23T22:09:11.020Z,100.00
2022-09-23T22:11:58.456Z,100.00
2022-09-23T22:14:26.453Z,100.00
2022-09-23T22:16:57.667Z,100.00
2022-09-23T22:19:27.116Z,100.00
2022-09-23T22:21:55.932Z,100.00
2022-09-23T22:24:22.949Z,100.00
2022-09-23T22:26:50.195Z,100.00
2022-09-23T22:29:36.053Z,100.00
2022-09-23T22:32:23.847Z,100.00
2022-09-23T22:34:52.206Z,100.00
2022-09-23T22:37:23.808Z,100.00
2022-09-23T22:39:50.569Z,100.00
2022-09-23T22:42:18.150Z,100.00
2022-09-23T22:44:46.017Z,100.00
2022-09-23T22:47:12.767Z,100.00
2022-09-23T22:49:40.079Z,100.00
2022-09-23T22:52:11.305Z,100.00
2022-09-23T22:54:38.665Z,100.00
2022-09-23T22:57:07.423Z,100.00
2022-09-23T22:59:34.853Z,100.00
2022-09-23T23:02:05.206Z,100.00
2022-09-23T23:04:33.603Z,100.00
2022-09-23T23:07:00.381Z,100.00
2022-09-23T23:09:27.146Z,100.00
2022-09-23T23:11:54.086Z,100.00
2022-09-23T23:14:20.894Z,100.00
2022-09-23T23:16:47.791Z,100.00
2022-09-23T23:19:17.631Z,100.00
2022-09-23T23:21:45.524Z,100.00
2022-09-23T23:24:23.403Z,100.00
2022-09-23T23:26:51.448Z,100.00
2022-09-23T23:29:20.580Z,100.00
2022-09-23T23:31:48.047Z,100.00
2022-09-23T23:34:18.110Z,100.00
2022-09-23T23:36:46.172Z,100.00
2022-09-23T23:39:14.298Z,100.00
2022-09-23T23:41:41.788Z,100.00
2022-09-23T23:44:08.803Z,100.00
2022-09-23T23:46:37.472Z,100.00
2022-09-23T23:49:05.038Z,100.00
2022-09-23T23:51:32.129Z,100.00
2022-09-23T23:53:59.864Z,100.00
2022-09-23T23:56:27.807Z,100.00
2022-09-23T23:58:59.450Z,100.00
